Time;durP1;ratioP1;P1;durP2;ratioP2;P2;SDS_P1;SDS_P2;PMS_P1;PMS_P2;Temp;Humidity;BMP_temperature;BMP_pressure;BME280_temperature;BME280_humidity;BME280_pressure;Samples;Min_cycle;Max_cycle;Signal;HPM_P1;HPM_P2
2021/07/31 00:00:33;;;;;;;12.33;11.23;;;18.80;99.90;;;;;;4931229;29;20223;-76
2021/07/31 00:03:00;;;;;;;12.67;11.57;;;18.70;99.90;;;;;;4928231;29;20205;-76
2021/07/31 00:05:26;;;;;;;12.50;11.40;;;18.70;99.90;;;;;;4930581;29;20548;-76
2021/07/31 00:07:53;;;;;;;12.13;11.13;;;18.70;99.90;;;;;;4933355;29;20596;-77
2021/07/31 00:10:20;;;;;;;11.90;11.00;;;18.60;99.90;;;;;;4932589;29;20211;-76
2021/07/31 00:12:47;;;;;;;12.43;11.43;;;18.60;99.90;;;;;;4932119;29;20242;-77
2021/07/31 00:15:15;;;;;;;13.37;12.10;;;18.60;99.90;;;;;;4935376;29;20215;-76
2021/07/31 00:17:42;;;;;;;13.20;12.00;;;18.50;99.90;;;;;;4933602;29;20270;-77
2021/07/31 00:20:09;;;;;;;13.10;12.00;;;18.50;99.90;;;;;;4929380;29;20203;-76
2021/07/31 00:22:36;;;;;;;13.23;12.03;;;18.50;99.90;;;;;;4933752;29;20786;-76
2021/07/31 00:25:03;;;;;;;13.00;11.90;;;18.50;99.90;;;;;;4931713;29;20611;-77
2021/07/31 00:27:30;;;;;;;13.90;12.80;;;18.50;99.90;;;;;;4931542;29;20197;-76
2021/07/31 00:29:57;;;;;;;12.83;11.83;;;18.50;99.90;;;;;;4922767;29;20269;-76
2021/07/31 00:32:25;;;;;;;13.57;12.37;;;18.50;99.90;;;;;;4932912;29;20248;-76
2021/07/31 00:34:52;;;;;;;14.10;12.90;;;18.60;99.90;;;;;;4932437;29;20610;-77
2021/07/31 00:37:19;;;;;;;14.13;12.93;;;18.60;99.90;;;;;;4934942;29;20197;-76
2021/07/31 00:39:46;;;;;;;14.00;12.80;;;18.60;99.90;;;;;;4934854;29;20204;-76
2021/07/31 00:42:14;;;;;;;13.50;12.40;;;18.70;99.90;;;;;;4968268;23;20319;-74
2021/07/31 00:44:41;;;;;;;14.20;13.00;;;18.60;99.90;;;;;;4951344;28;20608;-74
2021/07/31 00:47:08;;;;;;;11.43;10.33;;;18.70;99.90;;;;;;4956739;28;20609;-73
2021/07/31 00:49:37;;;;;;;9.53;7.50;;;18.70;99.90;;;;;;4956482;28;20198;-74
2021/07/31 00:52:06;;;;;;;9.73;7.93;;;18.70;99.90;;;;;;4952355;29;20480;-73
2021/07/31 00:54:34;;;;;;;8.60;6.83;;;18.60;99.90;;;;;;4936746;29;20203;-74
2021/07/31 00:57:02;;;;;;;7.90;7.07;;;18.60;99.90;;;;;;4936766;29;20289;-74
2021/07/31 00:59:40;;;;;;;8.80;7.30;;;18.60;99.90;;;;;;4943398;29;20295;-73
2021/07/31 01:02:08;;;;;;;8.20;7.40;;;18.60;99.90;;;;;;4943487;29;20238;-74
2021/07/31 01:04:36;;;;;;;8.13;7.27;;;18.50;99.90;;;;;;4944477;29;20616;-74
2021/07/31 01:07:04;;;;;;;7.83;7.03;;;18.50;99.90;;;;;;4945163;29;20251;-74
2021/07/31 01:09:31;;;;;;;9.13;8.20;;;18.50;99.90;;;;;;4948462;29;20591;-74
2021/07/31 01:11:58;;;;;;;12.07;11.07;;;18.50;99.90;;;;;;4953278;28;20250;-74
2021/07/31 01:14:25;;;;;;;7.80;7.00;;;18.50;99.90;;;;;;4938154;29;20201;-73
2021/07/31 01:16:52;;;;;;;8.40;7.03;;;18.50;99.90;;;;;;4937885;29;20191;-75
2021/07/31 01:19:19;;;;;;;8.33;7.50;;;18.40;99.90;;;;;;4938707;29;20204;-74
2021/07/31 01:21:47;;;;;;;7.90;7.10;;;18.40;99.90;;;;;;4936718;29;20663;-74
2021/07/31 01:24:29;;;;;;;8.57;7.77;;;18.40;99.90;;;;;;4944626;29;20232;-73
2021/07/31 01:26:57;;;;;;;7.80;7.00;;;18.40;99.90;;;;;;4929137;29;20272;-74
2021/07/31 01:29:24;;;;;;;8.53;7.73;;;18.30;99.90;;;;;;4936516;29;20197;-73
2021/07/31 01:31:51;;;;;;;7.73;6.93;;;18.30;99.90;;;;;;4937779;29;20283;-73
2021/07/31 01:34:18;;;;;;;10.57;9.67;;;18.30;99.90;;;;;;4941300;29;20208;-74
2021/07/31 01:36:47;;;;;;;8.10;7.10;;;18.30;99.90;;;;;;4936286;29;20625;-74
2021/07/31 01:39:16;;;;;;;7.60;6.80;;;18.20;99.90;;;;;;4936689;29;20195;-73
2021/07/31 01:41:43;;;;;;;7.10;6.40;;;18.30;99.90;;;;;;4937906;29;20314;-73
2021/07/31 01:44:11;;;;;;;9.80;8.90;;;18.30;99.90;;;;;;4931683;29;20289;-74
2021/07/31 01:46:38;;;;;;;8.43;7.17;;;18.30;99.90;;;;;;4937667;29;20279;-74
2021/07/31 01:49:05;;;;;;;7.80;7.00;;;18.30;99.90;;;;;;4935850;29;20199;-73
2021/07/31 01:51:38;;;;;;;8.23;7.00;;;18.30;99.90;;;;;;4937555;29;20246;-74
2021/07/31 01:54:07;;;;;;;8.80;7.70;;;18.30;99.90;;;;;;4943973;29;20202;-74
2021/07/31 01:56:34;;;;;;;9.20;7.93;;;18.30;99.90;;;;;;4942377;29;20223;-74
2021/07/31 01:59:03;;;;;;;9.73;8.33;;;18.30;99.90;;;;;;4937004;29;20526;-74
2021/07/31 02:01:30;;;;;;;8.40;7.47;;;18.30;99.90;;;;;;4936119;29;20229;-74
2021/07/31 02:04:00;;;;;;;10.27;8.20;;;18.40;99.90;;;;;;4950811;28;20544;-74
2021/07/31 02:06:56;;;;;;;9.03;8.13;;;18.40;99.90;;;;;;4884866;29;20204;-74
2021/07/31 02:09:26;;;;;;;8.90;7.87;;;18.40;99.90;;;;;;4932170;29;20539;-74
2021/07/31 02:11:53;;;;;;;8.47;7.57;;;18.40;99.90;;;;;;4935496;29;20233;-74
2021/07/31 02:14:19;;;;;;;7.83;6.73;;;18.40;99.90;;;;;;4944065;29;20233;-74
2021/07/31 02:16:52;;;;;;;8.07;6.13;;;18.40;99.90;;;;;;4937676;29;20223;-74
2021/07/31 02:19:19;;;;;;;8.43;7.60;;;18.30;99.90;;;;;;4936713;29;20216;-73
2021/07/31 02:21:58;;;;;;;7.30;5.40;;;18.40;99.90;;;;;;4935732;29;20218;-74
2021/07/31 02:24:29;;;;;;;7.63;5.83;;;18.30;99.90;;;;;;4936816;29;20273;-73
2021/07/31 02:27:14;;;;;;;6.20;5.13;;;18.30;99.90;;;;;;4937062;29;20723;-74
2021/07/31 02:29:51;;;;;;;5.97;4.93;;;18.40;99.90;;;;;;4935640;29;20202;-73
2021/07/31 02:32:18;;;;;;;6.40;4.90;;;18.30;99.90;;;;;;4936739;29;20259;-74
2021/07/31 02:34:45;;;;;;;5.63;4.30;;;18.30;99.90;;;;;;4936587;29;20625;-74
2021/07/31 02:37:13;;;;;;;4.30;3.90;;;18.30;99.90;;;;;;4936612;29;20418;-74
2021/07/31 02:39:49;;;;;;;5.87;4.57;;;18.30;99.90;;;;;;4931718;29;20305;-76
2021/07/31 02:42:17;;;;;;;5.80;5.03;;;18.30;99.90;;;;;;4957077;29;20227;-77
2021/07/31 02:44:44;;;;;;;8.87;8.07;;;18.20;99.90;;;;;;4947428;29;20199;-76
2021/07/31 02:47:16;;;;;;;10.23;8.40;;;18.20;99.90;;;;;;4945991;29;20209;-76
2021/07/31 02:49:48;;;;;;;9.27;8.57;;;18.30;99.90;;;;;;4948104;29;20187;-76
2021/07/31 02:52:15;;;;;;;9.40;8.70;;;18.30;99.90;;;;;;4958298;29;20218;-76
2021/07/31 02:54:46;;;;;;;9.50;8.80;;;18.20;99.90;;;;;;4964664;29;20205;-76
2021/07/31 02:57:14;;;;;;;9.37;8.67;;;18.20;99.90;;;;;;4948469;29;20237;-77
2021/07/31 02:59:43;;;;;;;5.40;5.00;;;18.20;99.90;;;;;;4942371;29;20202;-77
2021/07/31 03:02:12;;;;;;;9.00;8.23;;;18.20;99.90;;;;;;4959534;29;20224;-77
2021/07/31 03:04:44;;;;;;;4.93;4.30;;;18.10;99.90;;;;;;4945317;28;20212;-76
2021/07/31 03:07:18;;;;;;;4.00;3.63;;;18.20;99.90;;;;;;4943174;29;20212;-76
2021/07/31 03:09:48;;;;;;;9.90;9.20;;;18.20;99.90;;;;;;4945613;29;20206;-76
2021/07/31 03:12:18;;;;;;;8.73;8.13;;;18.10;99.90;;;;;;4946379;29;20213;-79
2021/07/31 03:14:47;;;;;;;8.80;8.20;;;18.10;99.90;;;;;;4927891;29;20210;-76
2021/07/31 03:17:16;;;;;;;9.00;8.40;;;18.10;99.90;;;;;;4934824;29;20218;-76
2021/07/31 03:19:45;;;;;;;9.40;8.70;;;18.10;99.90;;;;;;4939953;29;20199;-76
2021/07/31 03:22:13;;;;;;;9.63;8.93;;;18.00;99.90;;;;;;4937714;29;20217;-76
2021/07/31 03:24:47;;;;;;;8.90;8.30;;;17.90;99.90;;;;;;4934752;29;20211;-74
2021/07/31 03:27:17;;;;;;;9.43;8.77;;;17.80;99.90;;;;;;4932290;29;20202;-73
2021/07/31 03:30:12;;;;;;;9.63;8.93;;;17.70;99.90;;;;;;4931537;29;20220;-74
2021/07/31 03:32:45;;;;;;;9.70;9.00;;;17.60;99.90;;;;;;4932693;29;20284;-74
2021/07/31 03:35:14;;;;;;;9.07;8.37;;;17.60;99.90;;;;;;4932866;29;20309;-74
2021/07/31 03:37:59;;;;;;;9.07;8.47;;;17.50;99.90;;;;;;4927035;29;20205;-74
2021/07/31 03:40:27;;;;;;;9.00;8.40;;;17.40;99.90;;;;;;4933443;29;20204;-74
2021/07/31 03:42:55;;;;;;;10.57;9.67;;;17.30;99.90;;;;;;4935299;29;20220;-74
2021/07/31 03:45:22;;;;;;;10.73;9.90;;;17.30;99.90;;;;;;4932301;29;20228;-74
2021/07/31 03:47:49;;;;;;;10.67;9.87;;;17.20;99.90;;;;;;4941803;29;20214;-74
2021/07/31 03:50:16;;;;;;;10.10;9.30;;;17.10;99.90;;;;;;4930634;29;20201;-74
2021/07/31 03:52:54;;;;;;;10.37;9.50;;;17.10;99.90;;;;;;4933937;29;20701;-74
2021/07/31 03:55:23;;;;;;;9.90;9.20;;;17.10;99.90;;;;;;4933996;29;20205;-74
2021/07/31 03:57:51;;;;;;;9.73;9.03;;;17.00;99.90;;;;;;4933592;29;20953;-74
2021/07/31 04:00:19;;;;;;;10.67;9.87;;;17.00;99.90;;;;;;4935533;29;20253;-74
2021/07/31 04:02:54;;;;;;;10.77;9.90;;;16.90;99.90;;;;;;4933760;29;20313;-74
2021/07/31 04:05:22;;;;;;;10.00;9.13;;;16.90;99.90;;;;;;4933146;29;20212;-75
2021/07/31 04:08:12;;;;;;;11.00;10.17;;;16.90;99.90;;;;;;4933759;29;20220;-73
2021/07/31 04:11:04;;;;;;;10.30;9.50;;;16.90;99.90;;;;;;4930838;29;20212;-74
2021/07/31 04:14:06;;;;;;;11.07;10.17;;;16.80;99.90;;;;;;4930747;29;20216;-74
2021/07/31 04:16:42;;;;;;;12.20;11.30;;;16.70;99.90;;;;;;4934524;29;20228;-74
2021/07/31 04:19:11;;;;;;;11.53;10.73;;;16.70;99.90;;;;;;4935118;29;20254;-74
2021/07/31 04:21:40;;;;;;;11.37;10.43;;;16.70;99.90;;;;;;4934629;29;20231;-74
2021/07/31 04:24:10;;;;;;;12.00;11.10;;;16.70;99.90;;;;;;4930338;29;20228;-76
2021/07/31 04:26:37;;;;;;;11.57;10.67;;;16.60;99.90;;;;;;4936981;29;20187;-76
2021/07/31 04:29:04;;;;;;;12.53;11.43;;;16.60;99.90;;;;;;4940585;29;20199;-76
2021/07/31 04:31:30;;;;;;;12.73;11.80;;;16.60;99.90;;;;;;4942419;29;20215;-76
2021/07/31 04:33:59;;;;;;;12.23;11.33;;;16.70;99.90;;;;;;4939853;29;20202;-77
2021/07/31 04:36:25;;;;;;;12.07;11.17;;;16.70;99.90;;;;;;4936794;29;20294;-77
2021/07/31 04:38:52;;;;;;;12.13;11.23;;;16.80;99.90;;;;;;4942095;29;20195;-76
2021/07/31 04:41:19;;;;;;;12.10;11.20;;;16.90;99.90;;;;;;4942565;29;20223;-76
2021/07/31 04:43:46;;;;;;;13.20;12.10;;;16.90;99.90;;;;;;4940122;29;20203;-76
2021/07/31 04:46:13;;;;;;;9.03;8.20;;;17.00;99.90;;;;;;4940179;29;20199;-76
2021/07/31 04:48:39;;;;;;;11.93;10.93;;;17.10;99.90;;;;;;4940880;29;20203;-76
2021/07/31 04:51:09;;;;;;;11.67;10.77;;;17.20;99.90;;;;;;4941169;29;20586;-77
2021/07/31 04:53:36;;;;;;;12.33;11.43;;;17.30;99.90;;;;;;4938532;29;20280;-76
2021/07/31 04:56:03;;;;;;;12.27;11.47;;;17.30;99.90;;;;;;4941017;29;20216;-76
2021/07/31 04:58:31;;;;;;;12.63;11.63;;;17.30;99.90;;;;;;4938321;29;20223;-76
2021/07/31 05:00:59;;;;;;;12.30;11.40;;;17.30;99.90;;;;;;4936417;29;20200;-77
2021/07/31 05:03:26;;;;;;;11.53;10.63;;;17.30;99.90;;;;;;4943143;29;20237;-77
2021/07/31 05:05:53;;;;;;;11.17;10.27;;;17.30;99.90;;;;;;4941484;29;20578;-77
2021/07/31 05:08:21;;;;;;;5.50;4.90;;;17.30;99.90;;;;;;4937210;29;20224;-76
2021/07/31 05:10:50;;;;;;;5.33;4.73;;;17.30;99.90;;;;;;4941554;29;20201;-77
2021/07/31 05:13:17;;;;;;;5.00;4.40;;;17.30;99.90;;;;;;4940378;29;20204;-77
2021/07/31 05:15:45;;;;;;;5.37;4.70;;;17.40;99.90;;;;;;4938057;29;20221;-75
2021/07/31 05:18:13;;;;;;;7.53;6.83;;;17.60;99.90;;;;;;4940826;29;20550;-76
2021/07/31 05:20:41;;;;;;;5.17;4.70;;;17.80;99.90;;;;;;4947194;29;20194;-77
2021/07/31 05:23:08;;;;;;;10.23;9.43;;;18.00;99.90;;;;;;4955566;28;20306;-77
2021/07/31 05:25:36;;;;;;;8.47;7.77;;;18.20;99.90;;;;;;4953730;29;20284;-77
2021/07/31 05:28:04;;;;;;;5.23;4.73;;;18.40;99.90;;;;;;4936710;29;20201;-79
2021/07/31 05:30:30;;;;;;;8.20;7.50;;;18.50;99.90;;;;;;4934634;29;20202;-78
2021/07/31 05:32:57;;;;;;;8.50;7.90;;;18.60;99.90;;;;;;4932035;29;20220;-77
2021/07/31 05:35:24;;;;;;;7.97;7.37;;;18.70;99.90;;;;;;4941287;29;20218;-78
2021/07/31 05:37:51;;;;;;;5.63;4.00;;;18.90;99.90;;;;;;4940826;29;21495;-78
2021/07/31 05:40:18;;;;;;;10.07;9.17;;;19.20;99.90;;;;;;4938497;29;20202;-77
2021/07/31 05:42:46;;;;;;;10.93;10.13;;;19.40;99.90;;;;;;4940482;29;20229;-77
2021/07/31 05:45:13;;;;;;;8.00;7.30;;;19.60;99.90;;;;;;4929730;29;20688;-79
2021/07/31 05:47:40;;;;;;;11.50;10.60;;;19.70;99.90;;;;;;4939438;29;20199;-78
2021/07/31 05:50:09;;;;;;;10.60;9.80;;;20.00;99.90;;;;;;4936904;29;20226;-78
2021/07/31 05:52:37;;;;;;;10.53;9.83;;;20.50;99.90;;;;;;4938178;29;20219;-79
2021/07/31 05:55:05;;;;;;;9.80;9.00;;;21.00;99.90;;;;;;4932182;29;20731;-78
2021/07/31 05:57:32;;;;;;;10.60;9.83;;;21.10;99.90;;;;;;4936765;29;20256;-79
2021/07/31 06:00:01;;;;;;;8.43;7.73;;;20.90;99.90;;;;;;4933345;29;20205;-78
2021/07/31 06:02:28;;;;;;;7.23;6.63;;;20.80;99.90;;;;;;4934780;29;20926;-77
2021/07/31 06:04:55;;;;;;;7.70;7.07;;;20.90;99.90;;;;;;4932756;29;20187;-77
2021/07/31 06:07:22;;;;;;;9.03;8.23;;;20.90;99.90;;;;;;4936639;29;20197;-78
2021/07/31 06:09:53;;;;;;;8.03;7.23;;;20.90;99.90;;;;;;4933095;29;20214;-78
2021/07/31 06:12:20;;;;;;;9.70;9.00;;;20.90;99.90;;;;;;4935887;29;20215;-77
2021/07/31 06:14:48;;;;;;;10.77;9.97;;;20.90;99.90;;;;;;4937316;29;20272;-78
2021/07/31 06:17:17;;;;;;;9.40;8.70;;;21.00;99.90;;;;;;4935689;29;20217;-78
2021/07/31 06:19:44;;;;;;;10.07;9.27;;;21.00;99.90;;;;;;4940284;29;20201;-77
2021/07/31 06:22:11;;;;;;;6.70;6.10;;;21.20;99.90;;;;;;4935314;29;20233;-78
2021/07/31 06:24:39;;;;;;;6.60;6.10;;;21.20;99.90;;;;;;4936080;29;20291;-77
2021/07/31 06:27:07;;;;;;;7.43;6.73;;;21.30;99.90;;;;;;4938730;29;20285;-78
2021/07/31 06:29:35;;;;;;;6.17;5.57;;;21.30;99.90;;;;;;4936771;29;20214;-78
2021/07/31 06:32:02;;;;;;;7.20;6.50;;;21.30;99.90;;;;;;4937558;29;20219;-78
2021/07/31 06:34:31;;;;;;;7.80;7.03;;;21.40;99.90;;;;;;4927380;29;20232;-77
2021/07/31 06:36:58;;;;;;;10.30;9.40;;;21.50;99.90;;;;;;4941819;29;20234;-81
2021/07/31 06:39:27;;;;;;;8.23;7.63;;;21.90;99.90;;;;;;4942275;29;20231;-78
2021/07/31 06:41:54;;;;;;;9.83;9.13;;;22.10;99.90;;;;;;4967056;23;20225;-78
2021/07/31 06:44:21;;;;;;;10.40;9.60;;;22.30;99.90;;;;;;4952872;28;20296;-77
2021/07/31 06:46:48;;;;;;;9.57;8.77;;;22.70;99.90;;;;;;4952082;28;20182;-78
2021/07/31 06:49:14;;;;;;;8.53;7.83;;;23.10;99.90;;;;;;4953111;29;20199;-78
2021/07/31 06:51:43;;;;;;;9.17;8.57;;;23.40;99.90;;;;;;4954224;29;20229;-78
2021/07/31 06:54:10;;;;;;;7.67;7.07;;;23.70;99.90;;;;;;4948446;28;20207;-78
2021/07/31 06:56:37;;;;;;;8.27;7.57;;;24.10;99.90;;;;;;4950271;29;20222;-76
2021/07/31 06:59:04;;;;;;;7.20;5.90;;;24.30;99.90;;;;;;4945058;29;20205;-79
2021/07/31 07:01:31;;;;;;;8.17;7.37;;;24.30;99.90;;;;;;4943679;29;20599;-79
2021/07/31 07:03:58;;;;;;;8.10;7.50;;;24.50;99.90;;;;;;4949418;28;20260;-79
2021/07/31 07:06:25;;;;;;;5.07;4.40;;;24.70;99.90;;;;;;4950180;28;20198;-79
2021/07/31 07:08:53;;;;;;;7.30;6.80;;;24.90;99.90;;;;;;4953972;28;20309;-78
2021/07/31 07:11:20;;;;;;;7.23;5.03;;;25.10;99.90;;;;;;4940147;28;20209;-78
2021/07/31 07:13:47;;;;;;;8.87;8.07;;;25.30;99.90;;;;;;4951191;28;20204;-79
2021/07/31 07:16:14;;;;;;;8.60;7.90;;;25.60;99.90;;;;;;4953651;29;20562;-78
2021/07/31 07:18:41;;;;;;;8.40;7.73;;;25.60;99.90;;;;;;4945530;28;20195;-78
2021/07/31 07:21:10;;;;;;;8.37;7.60;;;25.70;99.90;;;;;;4951942;28;20198;-79
2021/07/31 07:23:37;;;;;;;8.07;7.47;;;25.60;99.90;;;;;;4956380;28;20229;-78
2021/07/31 07:26:09;;;;;;;7.70;7.00;;;25.70;99.90;;;;;;4945417;28;20198;-79
2021/07/31 07:28:36;;;;;;;7.97;7.47;;;25.70;99.90;;;;;;4946098;28;20206;-78
2021/07/31 07:31:03;;;;;;;9.73;7.93;;;25.90;99.90;;;;;;4950152;28;20754;-79
2021/07/31 07:33:31;;;;;;;7.90;7.10;;;25.80;99.90;;;;;;4948523;28;20782;-78
2021/07/31 07:35:58;;;;;;;7.27;6.13;;;26.00;99.90;;;;;;4961708;28;20289;-79
2021/07/31 07:38:25;;;;;;;6.23;5.73;;;26.00;99.90;;;;;;4942353;28;20245;-80
2021/07/31 07:40:52;;;;;;;7.47;6.83;;;26.20;99.90;;;;;;4954143;28;20268;-78
2021/07/31 07:43:20;;;;;;;6.90;6.30;;;26.20;99.90;;;;;;4941667;29;20230;-79
2021/07/31 07:45:46;;;;;;;4.40;3.70;;;26.50;99.90;;;;;;4945888;28;20203;-79
2021/07/31 07:48:13;;;;;;;7.60;6.93;;;26.50;99.90;;;;;;4944104;28;20187;-82
2021/07/31 07:50:40;;;;;;;7.77;7.10;;;26.50;99.90;;;;;;4951453;28;20203;-79
2021/07/31 07:53:07;;;;;;;9.40;7.00;;;26.60;99.90;;;;;;4947595;29;20711;-80
2021/07/31 07:55:34;;;;;;;5.20;4.40;;;26.30;99.90;;;;;;4953149;28;20603;-78
2021/07/31 07:58:00;;;;;;;3.33;2.40;;;25.90;99.90;;;;;;4943525;28;20274;-79
2021/07/31 08:00:29;;;;;;;4.13;2.77;;;26.30;99.90;;;;;;4948468;28;20254;-79
2021/07/31 08:02:55;;;;;;;4.57;2.90;;;26.00;99.90;;;;;;4945930;28;20890;-77
2021/07/31 08:05:29;;;;;;;5.47;2.87;;;26.20;99.90;;;;;;4954017;28;20599;-78
2021/07/31 08:07:56;;;;;;;5.17;2.70;;;25.70;99.90;;;;;;4950299;29;20191;-77
2021/07/31 08:10:23;;;;;;;4.80;2.63;;;25.60;99.90;;;;;;4951341;29;20299;-78
2021/07/31 08:12:50;;;;;;;7.43;6.83;;;25.50;99.90;;;;;;4951398;29;20640;-77
2021/07/31 08:15:17;;;;;;;8.23;7.53;;;25.30;99.90;;;;;;4950903;28;20198;-77
2021/07/31 08:17:45;;;;;;;7.50;6.90;;;25.20;99.90;;;;;;4950549;28;20215;-78
2021/07/31 08:20:13;;;;;;;9.03;7.50;;;25.50;99.90;;;;;;4939534;28;20194;-77
2021/07/31 08:22:40;;;;;;;6.37;4.47;;;25.80;99.90;;;;;;4950491;28;20210;-76
2021/07/31 08:25:07;;;;;;;4.73;2.60;;;26.50;99.90;;;;;;4955536;28;20198;-76
2021/07/31 08:27:34;;;;;;;5.37;2.67;;;26.90;99.90;;;;;;4955926;28;20198;-77
2021/07/31 08:30:01;;;;;;;5.03;2.33;;;27.30;99.90;;;;;;4949320;28;20205;-77
2021/07/31 08:32:28;;;;;;;4.20;3.10;;;27.50;99.90;;;;;;4945573;28;20885;-76
2021/07/31 08:34:56;;;;;;;6.00;4.97;;;27.70;99.90;;;;;;4944028;29;20732;-76
2021/07/31 08:37:23;;;;;;;4.57;2.87;;;28.00;99.90;;;;;;4953956;28;20585;-77
2021/07/31 08:39:50;;;;;;;4.90;3.07;;;28.20;99.90;;;;;;4944329;28;20222;-76
2021/07/31 08:42:17;;;;;;;7.83;7.10;;;28.40;99.90;;;;;;4955203;28;20226;-76
2021/07/31 08:44:44;;;;;;;7.33;6.63;;;28.30;99.90;;;;;;4953922;28;20202;-76
2021/07/31 08:47:13;;;;;;;7.93;6.00;;;28.30;99.90;;;;;;4951624;28;20191;-76
2021/07/31 08:49:44;;;;;;;6.90;6.30;;;28.60;99.90;;;;;;4947658;28;20255;-76
2021/07/31 08:52:15;;;;;;;7.97;6.63;;;28.50;99.90;;;;;;4948822;28;20215;-76
2021/07/31 08:54:42;;;;;;;5.47;5.03;;;27.90;99.90;;;;;;4953591;28;20278;-75
2021/07/31 08:57:11;;;;;;;5.40;5.00;;;27.70;99.90;;;;;;4954514;28;20577;-78
2021/07/31 08:59:37;;;;;;;5.50;2.50;;;27.90;99.90;;;;;;4954058;29;20565;-76
2021/07/31 09:02:05;;;;;;;4.47;2.77;;;28.20;99.90;;;;;;4946211;28;20222;-76
2021/07/31 09:04:32;;;;;;;7.23;6.57;;;27.60;99.90;;;;;;4944194;28;20191;-77
2021/07/31 09:06:58;;;;;;;9.50;8.63;;;27.00;99.90;;;;;;4948384;28;20273;-77
2021/07/31 09:09:28;;;;;;;7.20;6.57;;;27.00;99.90;;;;;;4942552;28;20194;-76
2021/07/31 09:11:58;;;;;;;6.50;6.00;;;27.20;99.90;;;;;;4954290;28;20215;-77
2021/07/31 09:14:29;;;;;;;7.53;6.83;;;27.20;99.90;;;;;;4953858;28;20191;-78
2021/07/31 09:16:56;;;;;;;8.33;7.57;;;27.40;99.90;;;;;;4958719;28;20202;-76
2021/07/31 09:19:26;;;;;;;7.97;6.60;;;27.50;99.90;;;;;;4947265;28;20209;-78
2021/07/31 09:22:03;;;;;;;7.83;6.57;;;27.70;99.90;;;;;;4956039;28;20237;-78
2021/07/31 09:24:31;;;;;;;7.93;6.00;;;27.90;99.90;;;;;;4953786;28;20201;-77
2021/07/31 09:26:58;;;;;;;5.60;5.13;;;28.20;99.90;;;;;;4958889;28;20205;-78
2021/07/31 09:29:27;;;;;;;9.20;6.50;;;28.00;99.90;;;;;;4957732;28;20290;-79
2021/07/31 09:31:58;;;;;;;6.10;5.60;;;28.10;99.40;;;;;;4958313;28;20225;-80
2021/07/31 09:34:33;;;;;;;6.53;6.03;;;28.30;99.80;;;;;;4958182;28;20213;-79
2021/07/31 09:37:11;;;;;;;4.60;3.07;;;28.40;96.90;;;;;;4969192;28;20289;-78
2021/07/31 09:39:54;;;;;;;6.40;5.90;;;28.20;98.30;;;;;;4956082;28;20198;-81
2021/07/31 09:42:29;;;;;;;5.10;3.60;;;28.50;98.10;;;;;;4952470;28;20237;-78
2021/07/31 09:44:57;;;;;;;4.40;3.63;;;28.30;97.60;;;;;;4961365;28;20289;-78
2021/07/31 09:47:23;;;;;;;7.03;6.43;;;28.30;97.10;;;;;;4953456;28;20199;-79
2021/07/31 09:49:51;;;;;;;7.43;6.90;;;28.50;98.80;;;;;;4956329;28;20211;-79
2021/07/31 09:52:20;;;;;;;7.47;6.87;;;28.80;96.90;;;;;;4952598;28;20261;-79
2021/07/31 09:54:47;;;;;;;7.40;6.70;;;29.00;97.50;;;;;;4954656;28;20206;-79
2021/07/31 09:57:15;;;;;;;7.00;6.50;;;28.90;97.00;;;;;;4955533;28;20281;-79
2021/07/31 09:59:46;;;;;;;5.87;4.23;;;28.50;97.60;;;;;;4953694;28;20245;-79
2021/07/31 10:02:18;;;;;;;7.07;6.37;;;28.40;96.30;;;;;;4951268;28;20223;-80
2021/07/31 10:04:46;;;;;;;7.03;6.53;;;28.40;95.90;;;;;;4940653;28;20191;-80
2021/07/31 10:07:13;;;;;;;6.83;6.30;;;28.50;95.70;;;;;;4949923;28;20608;-80
2021/07/31 10:09:42;;;;;;;7.20;6.57;;;28.40;96.20;;;;;;4954072;28;20191;-79
2021/07/31 10:12:15;;;;;;;6.90;6.30;;;28.20;96.70;;;;;;4949380;29;20222;-80
2021/07/31 10:14:43;;;;;;;6.80;6.30;;;28.10;97.50;;;;;;4952566;28;20572;-80
2021/07/31 10:17:10;;;;;;;6.27;5.87;;;27.90;97.70;;;;;;4948888;28;20212;-80
2021/07/31 10:19:41;;;;;;;6.83;6.13;;;28.10;96.00;;;;;;4955481;28;20633;-80
2021/07/31 10:22:09;;;;;;;6.20;5.70;;;28.20;96.60;;;;;;4945779;29;20215;-79
2021/07/31 10:25:03;;;;;;;7.00;6.40;;;28.00;95.80;;;;;;4956734;28;20195;-80
2021/07/31 10:27:33;;;;;;;6.50;6.00;;;28.10;97.90;;;;;;4949308;28;20242;-80
2021/07/31 10:30:00;;;;;;;6.53;6.03;;;28.20;96.20;;;;;;4943858;28;20226;-80
2021/07/31 10:32:46;;;;;;;6.77;6.17;;;28.20;96.30;;;;;;4952668;28;20221;-80
2021/07/31 10:35:36;;;;;;;6.90;6.20;;;27.80;96.10;;;;;;4964951;28;20198;-80
2021/07/31 10:38:06;;;;;;;6.30;5.90;;;27.50;97.60;;;;;;4954394;28;20269;-80
2021/07/31 10:40:54;;;;;;;6.43;5.90;;;27.10;96.90;;;;;;4952979;28;20604;-79
2021/07/31 10:43:23;;;;;;;6.43;5.90;;;26.90;97.40;;;;;;4941328;28;20731;-79
2021/07/31 10:45:50;;;;;;;6.57;5.87;;;27.20;97.40;;;;;;4950891;28;20203;-79
2021/07/31 10:48:29;;;;;;;6.63;5.70;;;27.10;97.80;;;;;;4946485;28;20284;-79
2021/07/31 10:50:56;;;;;;;6.40;5.80;;;27.20;97.00;;;;;;4953252;29;20725;-81
2021/07/31 10:53:43;;;;;;;6.30;5.80;;;27.00;97.00;;;;;;4954713;28;20797;-78
2021/07/31 10:56:10;;;;;;;6.07;5.60;;;26.90;98.10;;;;;;4947383;28;20211;-80
2021/07/31 10:58:38;;;;;;;6.43;5.90;;;26.80;96.70;;;;;;4953031;28;20613;-79
2021/07/31 11:01:22;;;;;;;7.43;5.77;;;26.80;97.10;;;;;;4948662;28;20206;-79
2021/07/31 11:03:50;;;;;;;6.00;5.50;;;26.60;97.00;;;;;;4951032;29;20190;-79
2021/07/31 11:06:17;;;;;;;6.13;5.73;;;26.70;98.60;;;;;;4951173;28;20209;-79
2021/07/31 11:09:11;;;;;;;5.70;5.30;;;27.00;97.30;;;;;;4949709;28;20241;-79
2021/07/31 11:11:38;;;;;;;6.17;5.67;;;27.10;97.20;;;;;;4953077;28;20797;-80
2021/07/31 11:14:07;;;;;;;6.20;5.60;;;27.10;97.90;;;;;;4949270;28;20574;-79
2021/07/31 11:16:34;;;;;;;6.10;5.60;;;26.90;96.10;;;;;;4953745;28;20257;-80
2021/07/31 11:19:02;;;;;;;6.13;5.63;;;26.80;96.70;;;;;;4948040;28;20229;-79
2021/07/31 11:21:30;;;;;;;6.23;5.70;;;26.90;96.20;;;;;;4950597;28;20615;-80
2021/07/31 11:23:59;;;;;;;6.00;5.50;;;27.10;96.00;;;;;;4950489;28;20271;-79
2021/07/31 11:26:40;;;;;;;5.60;5.20;;;26.80;96.10;;;;;;4955658;28;20249;-79
2021/07/31 11:29:15;;;;;;;5.80;5.30;;;26.90;96.70;;;;;;4951167;28;20191;-79
2021/07/31 11:31:44;;;;;;;6.03;5.53;;;27.00;96.30;;;;;;4954413;28;20224;-80
2021/07/31 11:34:12;;;;;;;6.60;6.00;;;27.00;96.00;;;;;;4950995;28;20219;-80
2021/07/31 11:36:41;;;;;;;6.07;5.67;;;26.70;95.60;;;;;;4953200;28;20250;-79
2021/07/31 11:39:09;;;;;;;6.00;5.50;;;26.30;96.10;;;;;;4945691;28;20229;-79
2021/07/31 11:41:41;;;;;;;6.00;5.20;;;26.00;96.20;;;;;;4948169;29;20281;-79
2021/07/31 11:44:09;;;;;;;5.97;5.47;;;25.90;96.30;;;;;;4951021;28;20190;-78
2021/07/31 11:46:45;;;;;;;6.50;5.87;;;25.80;96.90;;;;;;4948982;28;20716;-79
2021/07/31 11:49:24;;;;;;;6.40;5.90;;;26.00;96.50;;;;;;4946796;28;20666;-79
2021/07/31 11:51:52;;;;;;;6.20;5.73;;;26.00;96.50;;;;;;4938736;28;20221;-79
2021/07/31 11:54:19;;;;;;;6.43;5.93;;;25.80;97.00;;;;;;4948589;28;20195;-79
2021/07/31 11:56:47;;;;;;;6.20;5.80;;;26.00;97.20;;;;;;4952399;28;20779;-79
2021/07/31 11:59:23;;;;;;;6.13;5.70;;;26.10;97.30;;;;;;4956315;28;20231;-77
2021/07/31 12:01:52;;;;;;;6.63;6.10;;;25.90;96.90;;;;;;4956299;28;20217;-80
2021/07/31 12:04:41;;;;;;;6.10;5.50;;;25.80;97.20;;;;;;4958893;28;20202;-79
2021/07/31 12:07:09;;;;;;;6.37;5.73;;;25.70;96.00;;;;;;4950163;28;20445;-80
2021/07/31 12:09:35;;;;;;;5.77;5.20;;;25.70;96.80;;;;;;4953440;28;20284;-79
2021/07/31 12:12:03;;;;;;;5.93;5.53;;;25.70;96.30;;;;;;4956583;28;20226;-79
2021/07/31 12:14:31;;;;;;;6.23;5.60;;;25.80;97.20;;;;;;4952206;28;20190;-79
2021/07/31 12:17:23;;;;;;;6.03;5.53;;;26.00;96.90;;;;;;4954271;28;20207;-79
2021/07/31 12:19:52;;;;;;;5.67;5.20;;;26.10;96.70;;;;;;4955904;28;20214;-79
2021/07/31 12:22:21;;;;;;;6.20;5.60;;;26.40;96.90;;;;;;4944417;28;20231;-79
2021/07/31 12:25:07;;;;;;;5.80;5.40;;;26.50;96.60;;;;;;4953303;29;20199;-79
2021/07/31 12:27:55;;;;;;;6.03;5.63;;;26.30;95.10;;;;;;4953028;28;20221;-79
2021/07/31 12:30:27;;;;;;;6.27;5.77;;;26.00;96.80;;;;;;4945824;29;20203;-79
2021/07/31 12:32:55;;;;;;;5.97;5.53;;;25.90;96.30;;;;;;4949745;28;20226;-79
2021/07/31 12:35:40;;;;;;;6.17;5.67;;;25.90;97.00;;;;;;4952201;28;20207;-79
2021/07/31 12:38:09;;;;;;;5.73;5.23;;;25.80;95.60;;;;;;4967759;28;20197;-79
2021/07/31 12:40:37;;;;;;;5.70;5.20;;;25.80;95.30;;;;;;4941641;28;20692;-80
2021/07/31 12:43:07;;;;;;;5.93;5.33;;;25.90;96.30;;;;;;4977461;23;20243;-76
2021/07/31 12:45:34;;;;;;;6.13;5.63;;;26.20;96.60;;;;;;4955670;29;20205;-77
2021/07/31 12:48:03;;;;;;;6.27;5.67;;;26.50;94.80;;;;;;4955573;29;20723;-76
2021/07/31 12:50:29;;;;;;;4.93;4.53;;;26.50;95.20;;;;;;4948522;28;20648;-77
2021/07/31 12:52:56;;;;;;;3.47;2.47;;;26.40;95.30;;;;;;4948539;29;20218;-77
2021/07/31 12:55:24;;;;;;;3.20;2.10;;;26.40;96.90;;;;;;4957050;28;20210;-78